Time;durP1;ratioP1;P1;durP2;ratioP2;P2;SDS_P1;SDS_P2;PMS_P1;PMS_P2;Temp;Humidity;BMP_temperature;BMP_pressure;BME280_temperature;BME280_humidity;BME280_pressure;Samples;Min_cycle;Max_cycle;Signal;HPM_P1;HPM_P2
2022/09/21 00:00:45;;;;;;;3.88;1.60;;;;;;;19.68;48.89;102547.22;5011573;28;20042;-72
2022/09/21 00:03:10;;;;;;;4.90;1.30;;;;;;;19.62;48.69;102531.72;5012231;28;20057;-75
2022/09/21 00:05:36;;;;;;;3.03;1.38;;;;;;;19.63;48.46;102534.25;5012204;28;20048;-74
2022/09/21 00:08:04;;;;;;;4.68;1.70;;;;;;;19.64;48.51;102535.94;5012327;28;20057;-74
2022/09/21 00:10:30;;;;;;;2.85;1.40;;;;;;;19.67;48.48;102541.03;5011904;28;20041;-73
2022/09/21 00:12:56;;;;;;;4.57;1.58;;;;;;;19.57;48.41;102537.28;5012433;28;20044;-73
2022/09/21 00:15:23;;;;;;;3.55;1.50;;;;;;;19.59;48.64;102545.97;5012240;28;20469;-73
2022/09/21 00:17:52;;;;;;;3.58;1.42;;;;;;;19.53;48.32;102538.38;5011969;28;20033;-72
2022/09/21 00:20:18;;;;;;;4.28;1.65;;;;;;;19.50;48.65;102544.72;5011822;28;20122;-73
2022/09/21 00:22:45;;;;;;;3.53;1.40;;;;;;;19.55;48.58;102547.94;5011934;28;20134;-73
2022/09/21 00:25:10;;;;;;;4.15;1.65;;;;;;;19.52;48.50;102545.47;5012070;28;20465;-72
2022/09/21 00:27:36;;;;;;;3.60;1.50;;;;;;;19.53;48.50;102560.38;5012446;28;20135;-72
2022/09/21 00:30:05;;;;;;;3.63;1.65;;;;;;;19.52;48.39;102549.94;5011494;28;20129;-73
2022/09/21 00:32:32;;;;;;;3.50;1.42;;;;;;;19.48;48.46;102545.75;5011921;28;20034;-72
2022/09/21 00:34:59;;;;;;;3.95;1.60;;;;;;;19.48;48.27;102554.53;5011418;28;20468;-73
2022/09/21 00:37:25;;;;;;;5.03;1.50;;;;;;;19.51;48.26;102557.00;5012020;28;20021;-73
2022/09/21 00:39:50;;;;;;;3.95;1.70;;;;;;;19.46;48.39;102552.94;5012166;28;20381;-73
2022/09/21 00:42:26;;;;;;;3.65;1.55;;;;;;;19.49;48.41;102553.59;5010574;28;20065;-72
2022/09/21 00:44:51;;;;;;;4.18;1.50;;;;;;;19.47;48.34;102555.50;5027475;28;20037;-72
2022/09/21 00:47:44;;;;;;;3.70;1.33;;;;;;;19.45;48.33;102551.22;5011390;28;20241;-72
2022/09/21 00:50:15;;;;;;;3.95;1.50;;;;;;;19.41;48.32;102550.56;5012010;28;20045;-73
2022/09/21 00:52:46;;;;;;;4.05;1.77;;;;;;;19.36;48.38;102548.19;5011634;28;20033;-74
2022/09/21 00:55:21;;;;;;;4.32;1.67;;;;;;;19.37;48.29;102551.69;5011424;28;20068;-73
2022/09/21 00:57:52;;;;;;;3.15;1.63;;;;;;;19.41;48.32;102561.16;5011038;28;20029;-73
2022/09/21 01:00:17;;;;;;;3.88;1.80;;;;;;;19.33;48.38;102553.66;5011527;28;20060;-74
2022/09/21 01:02:44;;;;;;;3.70;1.60;;;;;;;19.32;48.37;102554.59;5011411;28;20069;-73
2022/09/21 01:05:10;;;;;;;3.15;1.50;;;;;;;19.28;48.26;102536.38;5011886;28;20120;-73
2022/09/21 01:07:38;;;;;;;3.42;1.42;;;;;;;19.26;48.29;102531.16;5011928;28;20085;-73
2022/09/21 01:10:10;;;;;;;4.10;1.80;;;;;;;19.29;48.36;102546.84;5011542;28;20041;-73
2022/09/21 01:12:38;;;;;;;3.72;1.50;;;;;;;19.34;48.29;102558.03;5011134;28;20120;-75
2022/09/21 01:15:12;;;;;;;3.95;1.70;;;;;;;19.32;48.17;102551.94;5017802;28;20095;-72
2022/09/21 01:18:11;;;;;;;3.15;1.65;;;;;;;19.27;48.20;102547.91;5010898;28;20431;-73
2022/09/21 01:21:15;;;;;;;4.35;1.52;;;;;;;19.32;48.26;102554.59;5011844;28;20048;-72
2022/09/21 01:24:14;;;;;;;3.35;1.48;;;;;;;19.32;48.22;102554.59;5012064;28;20116;-72
2022/09/21 01:26:49;;;;;;;3.88;1.83;;;;;;;19.24;48.11;102542.78;5017019;28;20060;-72
2022/09/21 01:29:47;;;;;;;4.80;1.65;;;;;;;19.30;48.33;102558.28;5011516;28;20038;-74
2022/09/21 01:32:22;;;;;;;4.55;1.40;;;;;;;19.23;48.21;102547.22;4991674;28;20077;-74
2022/09/21 01:35:00;;;;;;;3.38;1.50;;;;;;;19.20;48.23;102540.34;5011676;28;20037;-71
2022/09/21 01:37:35;;;;;;;3.53;1.60;;;;;;;19.25;48.22;102553.28;5009307;28;20033;-74
2022/09/21 01:40:07;;;;;;;4.00;1.73;;;;;;;19.28;48.37;102560.16;5010338;28;20041;-73
2022/09/21 01:42:34;;;;;;;4.30;1.65;;;;;;;19.22;48.41;102545.53;5011156;28;20489;-72
2022/09/21 01:45:02;;;;;;;3.95;1.77;;;;;;;19.25;48.16;102549.75;5011255;28;20124;-72
2022/09/21 01:47:30;;;;;;;4.47;1.70;;;;;;;19.21;48.30;102543.81;5011511;28;20037;-72
2022/09/21 01:50:00;;;;;;;3.47;1.80;;;;;;;19.26;48.31;102548.84;5011027;28;20367;-72
2022/09/21 01:52:44;;;;;;;4.20;1.30;;;;;;;19.26;48.34;102554.13;5009001;28;20464;-73
2022/09/21 01:55:15;;;;;;;3.05;1.38;;;;;;;19.25;48.16;102552.41;5011813;28;20070;-72
2022/09/21 01:57:51;;;;;;;3.40;1.42;;;;;;;19.23;48.39;102555.13;5011244;28;20476;-74
2022/09/21 02:00:16;;;;;;;2.90;1.38;;;;;;;19.10;48.12;102536.50;5011048;28;20037;-74
2022/09/21 02:02:50;;;;;;;2.85;1.50;;;;;;;19.21;48.14;102546.47;5011128;28;20056;-72
2022/09/21 02:05:19;;;;;;;4.05;1.60;;;;;;;19.20;48.21;102550.03;5011216;28;20042;-74
2022/09/21 02:07:45;;;;;;;5.50;1.80;;;;;;;19.19;48.35;102543.91;5011456;28;20061;-72
2022/09/21 02:10:21;;;;;;;3.08;1.60;;;;;;;19.19;48.08;102549.19;5010781;28;20034;-72
2022/09/21 02:12:48;;;;;;;4.50;1.75;;;;;;;19.18;48.29;102552.78;5010888;28;20032;-74
2022/09/21 02:15:13;;;;;;;3.58;1.70;;;;;;;19.17;47.99;102548.44;5010193;28;20042;-75
2022/09/21 02:18:00;;;;;;;3.25;1.45;;;;;;;19.17;48.27;102551.09;5010884;28;20075;-71
2022/09/21 02:20:30;;;;;;;2.92;1.40;;;;;;;19.04;48.11;102534.22;5010901;28;20112;-73
2022/09/21 02:23:21;;;;;;;3.10;1.70;;;;;;;19.17;48.09;102548.44;5011666;28;20493;-72
2022/09/21 02:25:58;;;;;;;3.60;1.60;;;;;;;19.17;47.99;102547.59;5014198;28;20579;-72
2022/09/21 02:28:54;;;;;;;3.58;1.60;;;;;;;19.11;48.15;102543.50;5013184;28;20045;-75
2022/09/21 02:31:27;;;;;;;3.80;1.50;;;;;;;19.16;48.07;102556.47;5014256;28;20882;-72
2022/09/21 02:34:23;;;;;;;3.47;1.70;;;;;;;19.15;48.03;102552.09;5014768;28;20120;-72
2022/09/21 02:36:57;;;;;;;3.15;1.50;;;;;;;19.06;47.94;102539.41;5013322;28;20057;-72
2022/09/21 02:39:34;;;;;;;3.00;1.53;;;;;;;19.06;47.99;102536.78;5014102;28;20041;-72
2022/09/21 02:42:11;;;;;;;3.42;1.63;;;;;;;19.01;48.00;102532.63;5014039;28;20074;-72
2022/09/21 02:44:40;;;;;;;4.57;1.55;;;;;;;19.06;48.03;102539.41;5013358;28;20072;-71
2022/09/21 02:47:30;;;;;;;3.40;1.55;;;;;;;19.12;47.75;102550.50;5012950;28;20034;-73
2022/09/21 02:50:05;;;;;;;3.05;1.33;;;;;;;19.11;47.75;102540.88;5013780;28;20434;-71
2022/09/21 02:52:33;;;;;;;2.97;1.30;;;;;;;19.09;47.93;102536.59;5014728;28;20029;-74
2022/09/21 02:55:00;;;;;;;2.55;1.30;;;;;;;18.89;47.91;102517.50;5012685;28;20038;-72
2022/09/21 02:57:26;;;;;;;3.28;1.58;;;;;;;19.05;47.75;102537.75;5013388;28;20022;-72
2022/09/21 02:59:52;;;;;;;2.83;1.58;;;;;;;19.00;47.72;102532.72;5013192;28;20037;-73
2022/09/21 03:02:17;;;;;;;3.38;1.40;;;;;;;19.03;47.92;102535.19;5013539;28;20422;-72
2022/09/21 03:04:46;;;;;;;2.72;1.38;;;;;;;19.01;47.86;102532.63;5013453;28;20045;-72
2022/09/21 03:07:13;;;;;;;2.45;1.30;;;;;;;19.03;47.56;102540.47;5012207;28;20557;-74
2022/09/21 03:09:38;;;;;;;3.22;1.50;;;;;;;19.02;47.55;102544.03;5013415;28;20045;-73
2022/09/21 03:12:04;;;;;;;3.42;1.48;;;;;;;19.03;47.39;102548.41;5013318;28;20394;-73
2022/09/21 03:14:31;;;;;;;3.88;1.70;;;;;;;19.00;47.75;102545.94;5013448;28;20112;-72
2022/09/21 03:16:57;;;;;;;3.20;1.48;;;;;;;18.92;47.51;102535.81;5013178;28;20048;-74
2022/09/21 03:19:23;;;;;;;3.10;1.60;;;;;;;19.01;47.63;102548.50;5013204;28;20037;-72
2022/09/21 03:21:48;;;;;;;3.17;1.70;;;;;;;19.02;47.50;102555.44;5013386;28;20083;-72
2022/09/21 03:24:44;;;;;;;3.58;1.50;;;;;;;19.00;47.49;102548.56;5012879;28;20042;-72
2022/09/21 03:26:59;;;;;;;3.50;1.63;;;;;;;18.98;47.52;102546.03;5012436;28;20096;-73
2022/09/21 03:29:24;;;;;;;5.82;1.75;;;;;;;18.98;47.61;102551.31;5012986;28;20033;-76
2022/09/21 03:31:52;;;;;;;3.45;1.63;;;;;;;18.89;47.53;102532.50;5013193;28;20451;-72
2022/09/21 03:34:17;;;;;;;4.28;1.85;;;;;;;18.97;47.42;102551.41;5011887;28;20091;-74
2022/09/21 03:36:42;;;;;;;4.67;1.50;;;;;;;18.89;47.41;102541.25;5011950;28;20462;-74
2022/09/21 03:39:07;;;;;;;3.40;1.60;;;;;;;18.86;47.59;102538.81;5012541;28;20263;-74
2022/09/21 03:41:33;;;;;;;3.60;1.63;;;;;;;18.95;47.71;102561.22;5013335;28;20029;-73
2022/09/21 03:43:59;;;;;;;3.22;1.52;;;;;;;18.76;47.52;102533.16;5013337;28;20255;-73
2022/09/21 03:46:24;;;;;;;4.93;1.70;;;;;;;18.92;47.42;102562.22;5012677;28;20072;-73
2022/09/21 03:48:49;;;;;;;4.07;1.73;;;;;;;18.91;47.48;102557.88;5012485;28;20259;-73
2022/09/21 03:51:14;;;;;;;3.25;1.60;;;;;;;18.92;47.63;102564.03;5012979;28;20358;-73
2022/09/21 03:53:40;;;;;;;4.55;1.67;;;;;;;18.91;47.39;102567.59;5011137;28;20092;-77
2022/09/21 03:56:05;;;;;;;3.40;1.60;;;;;;;18.91;47.34;102567.59;5011946;28;20057;-71
2022/09/21 03:58:30;;;;;;;3.83;1.50;;;;;;;18.92;47.45;102569.31;5012030;28;20120;-72
2022/09/21 04:01:00;;;;;;;2.88;1.42;;;;;;;18.84;47.36;102556.53;5010842;28;20298;-73
2022/09/21 04:03:25;;;;;;;3.05;1.50;;;;;;;18.88;47.44;102567.78;5012209;28;20045;-73
2022/09/21 04:05:51;;;;;;;3.40;1.43;;;;;;;18.87;47.20;102561.66;5011969;28;20041;-73
2022/09/21 04:08:16;;;;;;;4.53;1.42;;;;;;;18.88;47.12;102567.78;5010769;28;20807;-75
2022/09/21 04:10:42;;;;;;;4.40;1.75;;;;;;;18.85;47.02;102563.53;5010070;28;20716;-73
2022/09/21 04:13:08;;;;;;;4.15;1.50;;;;;;;18.69;47.21;102539.72;5011312;28;20033;-74
2022/09/21 04:15:33;;;;;;;3.97;1.50;;;;;;;18.85;47.22;102568.81;5011626;28;20025;-73
2022/09/21 04:17:58;;;;;;;3.25;1.38;;;;;;;18.77;47.31;102550.72;5011368;28;20489;-72
2022/09/21 04:20:24;;;;;;;2.93;1.60;;;;;;;18.84;47.45;102564.47;5011311;28;20040;-73
2022/09/21 04:22:50;;;;;;;2.83;1.40;;;;;;;18.80;47.08;102553.19;5011624;28;20267;-74
2022/09/21 04:25:15;;;;;;;3.63;1.65;;;;;;;18.87;47.10;102563.41;5009976;28;20022;-73
2022/09/21 04:27:42;;;;;;;2.75;1.42;;;;;;;18.93;47.04;102568.34;5011866;28;20135;-74
2022/09/21 04:30:10;;;;;;;4.45;1.48;;;;;;;18.89;47.15;102559.75;5012098;28;20026;-73
2022/09/21 04:32:35;;;;;;;3.50;1.50;;;;;;;18.97;47.04;102572.53;5012211;28;20073;-74
2022/09/21 04:35:01;;;;;;;3.33;1.40;;;;;;;18.95;46.79;102569.13;5011543;28;20103;-72
2022/09/21 04:37:26;;;;;;;3.50;1.50;;;;;;;18.95;46.79;102567.34;5012556;28;20032;-73
2022/09/21 04:39:51;;;;;;;4.03;1.60;;;;;;;18.93;46.72;102563.06;5011313;28;20044;-72
2022/09/21 04:42:17;;;;;;;3.17;1.30;;;;;;;18.96;46.69;102568.16;5012455;28;20040;-73
2022/09/21 04:44:42;;;;;;;4.80;1.65;;;;;;;18.92;46.71;102567.50;5012066;28;20269;-73
2022/09/21 04:47:08;;;;;;;4.50;1.50;;;;;;;18.93;46.54;102574.50;5011802;28;20467;-73
2022/09/21 04:49:33;;;;;;;3.30;1.50;;;;;;;18.89;46.84;102561.56;5011735;28;20026;-71
2022/09/21 04:51:58;;;;;;;3.30;1.50;;;;;;;18.89;47.05;102575.59;5012117;28;20022;-72
2022/09/21 04:54:24;;;;;;;2.85;1.42;;;;;;;18.90;46.83;102584.38;5011138;28;20266;-74
2022/09/21 04:56:49;;;;;;;5.13;1.60;;;;;;;18.84;47.04;102573.22;5011344;28;20720;-73
2022/09/21 04:59:14;;;;;;;3.13;1.55;;;;;;;18.84;47.12;102575.03;5018705;28;20029;-74
2022/09/21 05:01:39;;;;;;;2.90;1.50;;;;;;;18.87;46.97;102579.25;5011830;28;20116;-75
2022/09/21 05:04:05;;;;;;;3.37;1.30;;;;;;;18.88;46.87;102586.25;5011609;28;20064;-74
2022/09/21 05:06:32;;;;;;;2.72;1.38;;;;;;;18.84;46.84;102573.22;5011782;28;20739;-73
2022/09/21 05:11:42;;;;;;;2.95;1.50;;;;;;;18.76;46.68;102559.56;5011847;28;20103;-73
2022/09/21 05:14:08;;;;;;;4.28;1.60;;;;;;;18.81;46.77;102570.72;5011770;28;20041;-74
2022/09/21 05:16:35;;;;;;;2.88;1.48;;;;;;;18.81;46.98;102578.66;5011417;28;20038;-73
2022/09/21 05:19:00;;;;;;;3.25;1.40;;;;;;;18.77;46.89;102576.25;5011549;28;20030;-73
2022/09/21 05:21:26;;;;;;;3.47;1.50;;;;;;;18.77;47.02;102573.63;5011175;28;20029;-74
2022/09/21 05:23:51;;;;;;;3.88;1.50;;;;;;;18.80;47.06;102581.38;5011531;28;20473;-71
2022/09/21 05:26:18;;;;;;;3.53;1.50;;;;;;;18.76;46.62;102571.94;5010900;28;20029;-73
2022/09/21 05:28:44;;;;;;;2.80;1.38;;;;;;;18.80;46.86;102586.66;5011211;28;20077;-75
2022/09/21 05:31:30;;;;;;;3.58;1.60;;;;;;;18.76;46.97;102579.88;5011066;28;20052;-72
2022/09/21 05:34:04;;;;;;;4.05;1.98;;;;;;;18.82;46.86;102590.94;5010876;28;20029;-74
2022/09/21 05:36:56;;;;;;;3.25;1.48;;;;;;;18.81;46.93;102597.13;5026075;28;20036;-72
2022/09/21 05:39:22;;;;;;;5.53;1.70;;;;;;;18.81;46.65;102596.28;5010761;28;20056;-72
2022/09/21 05:41:47;;;;;;;3.17;1.42;;;;;;;18.77;46.82;102593.00;5011604;28;20457;-75
2022/09/21 05:44:13;;;;;;;3.67;1.70;;;;;;;18.76;46.79;102599.19;5026450;28;20030;-73
2022/09/21 05:46:59;;;;;;;3.97;1.52;;;;;;;18.79;46.85;102606.09;5011216;28;20079;-72
2022/09/21 05:49:54;;;;;;;4.22;1.58;;;;;;;18.77;46.80;102600.03;5011153;28;20042;-73
2022/09/21 05:52:19;;;;;;;;;;;;;;;18.78;46.77;102605.22;5011259;28;20373;-72
2022/09/21 05:55:12;;;;;;;3.50;1.70;;;;;;;18.79;46.65;102606.94;5010976;28;19927;-72
2022/09/21 05:58:08;;;;;;;3.65;1.63;;;;;;;18.72;46.72;102596.81;5011696;28;20121;-73
2022/09/21 06:00:44;;;;;;;3.15;1.45;;;;;;;18.76;47.45;102607.13;5015479;28;20083;-71
2022/09/21 06:03:26;;;;;;;3.40;1.67;;;;;;;18.84;47.48;102619.94;5014784;28;20040;-73
2022/09/21 06:05:52;;;;;;;3.28;1.60;;;;;;;18.88;47.46;102610.88;5014758;28;20061;-73
2022/09/21 06:08:17;;;;;;;4.25;1.70;;;;;;;18.92;47.40;102616.88;5014421;28;20049;-73
2022/09/21 06:10:42;;;;;;;4.90;1.50;;;;;;;18.93;47.72;102611.50;5014918;28;20877;-72
2022/09/21 06:13:08;;;;;;;4.00;1.60;;;;;;;18.99;47.28;102615.56;5013531;28;20087;-71
2022/09/21 06:15:37;;;;;;;3.65;1.67;;;;;;;18.95;47.40;102609.59;5014613;28;20067;-71
2022/09/21 06:18:04;;;;;;;3.90;1.63;;;;;;;19.00;47.55;102614.63;5013901;28;20036;-69
2022/09/21 06:20:29;;;;;;;3.42;1.65;;;;;;;19.00;47.70;102618.13;5014062;28;20037;-71
2022/09/21 06:23:07;;;;;;;3.37;1.60;;;;;;;19.08;47.69;102630.91;5014116;28;20419;-72
2022/09/21 06:25:32;;;;;;;4.53;1.60;;;;;;;19.05;47.57;102617.00;5014588;28;20278;-71
2022/09/21 06:28:16;;;;;;;3.40;1.48;;;;;;;19.13;47.63;102628.84;5013917;28;20049;-71
2022/09/21 06:30:42;;;;;;;3.58;1.77;;;;;;;19.11;47.85;102621.94;5014299;28;20477;-70
2022/09/21 06:33:08;;;;;;;4.32;2.03;;;;;;;19.17;47.80;102627.72;5013480;28;20101;-70
2022/09/21 06:35:35;;;;;;;3.58;1.50;;;;;;;19.16;47.62;102617.25;5014448;28;20478;-71
2022/09/21 06:38:02;;;;;;;3.33;1.63;;;;;;;19.24;47.46;102630.88;5014280;28;20395;-71
2022/09/21 06:40:28;;;;;;;4.63;1.92;;;;;;;19.26;47.62;102628.97;5015546;28;20631;-71
2022/09/21 06:42:58;;;;;;;3.95;1.90;;;;;;;19.27;47.73;102617.47;5017830;28;20029;-67
2022/09/21 06:45:25;;;;;;;4.68;1.98;;;;;;;19.32;47.75;102625.97;5010455;28;20477;-75
2022/09/21 06:47:50;;;;;;;5.15;1.80;;;;;;;19.28;48.01;102613.91;5015210;28;20042;-75
2022/09/21 06:50:16;;;;;;;6.95;2.25;;;;;;;19.42;47.84;102631.56;5014031;28;20031;-80
2022/09/21 06:52:41;;;;;;;4.97;2.45;;;;;;;19.37;47.79;102620.41;5015820;28;20144;-79
2022/09/21 06:55:08;;;;;;;5.57;1.85;;;;;;;19.39;47.95;102626.47;5018671;28;20901;-79
2022/09/21 06:57:34;;;;;;;4.45;1.98;;;;;;;19.34;47.92;102610.03;5013253;28;20481;-73
2022/09/21 06:59:59;;;;;;;5.90;2.15;;;;;;;19.42;48.10;102617.50;5013143;28;20037;-76
2022/09/21 07:02:25;;;;;;;7.90;2.35;;;;;;;19.53;47.83;102623.84;5013722;28;20038;-73
2022/09/21 07:04:50;;;;;;;5.32;3.15;;;;;;;19.61;47.76;102636.63;5013934;28;20068;-75
2022/09/21 07:07:15;;;;;;;5.75;1.92;;;;;;;19.67;47.53;102636.25;5012410;28;20037;-75
2022/09/21 07:09:40;;;;;;;5.03;1.97;;;;;;;19.75;47.33;102631.34;5013082;28;20040;-75
2022/09/21 07:12:06;;;;;;;4.60;1.73;;;;;;;19.84;47.01;102630.00;5014239;28;20286;-76
2022/09/21 07:14:32;;;;;;;8.77;2.30;;;;;;;19.83;47.03;102628.28;5014528;28;20048;-77
2022/09/21 07:16:57;;;;;;;3.97;1.90;;;;;;;19.92;47.00;102627.72;5013128;28;20366;-76
2022/09/21 07:19:22;;;;;;;3.92;1.65;;;;;;;19.98;46.92;102629.16;5013368;28;20262;-78
2022/09/21 07:21:48;;;;;;;4.10;1.80;;;;;;;19.91;46.60;102614.59;5012099;28;20037;-80
2022/09/21 07:24:14;;;;;;;5.43;2.10;;;;;;;19.97;47.05;102629.25;5012839;28;20120;-79
2022/09/21 07:26:39;;;;;;;5.78;1.90;;;;;;;19.97;46.73;102629.25;5012586;28;20110;-76
2022/09/21 07:29:05;;;;;;;10.32;2.38;;;;;;;19.93;46.84;102623.28;5012012;28;20057;-79
2022/09/21 07:31:30;;;;;;;4.30;1.75;;;;;;;19.89;46.60;102612.03;5019659;28;20457;-78
2022/09/21 07:33:57;;;;;;;6.53;2.00;;;;;;;19.97;46.60;102618.69;5012084;28;20039;-79
2022/09/21 07:36:22;;;;;;;4.78;1.67;;;;;;;20.05;46.93;102630.47;5012119;28;20022;-77
2022/09/21 07:38:48;;;;;;;5.55;1.90;;;;;;;20.08;46.47;102627.66;5011601;28;20493;-78
2022/09/21 07:41:13;;;;;;;5.50;2.05;;;;;;;20.14;46.51;102622.91;5012800;28;20034;-77
2022/09/21 07:43:40;;;;;;;4.38;1.70;;;;;;;20.12;46.27;102623.00;5012430;28;20033;-77
2022/09/21 07:46:07;;;;;;;5.70;1.80;;;;;;;20.21;46.59;102626.91;5013597;28;20026;-84
2022/09/21 07:48:32;;;;;;;5.40;1.48;;;;;;;20.13;46.77;102608.84;5020491;28;20033;-83
2022/09/21 07:51:15;;;;;;;4.35;1.70;;;;;;;20.24;46.59;102616.97;5013009;28;20083;-81
2022/09/21 07:53:45;;;;;;;4.93;1.60;;;;;;;20.25;46.59;102615.16;5011316;28;20155;-80
2022/09/21 07:56:14;;;;;;;5.28;1.50;;;;;;;20.35;46.51;102628.69;5012031;28;20030;-76
2022/09/21 08:01:24;;;;;;;4.63;1.63;;;;;;;20.24;46.88;102616.97;5012160;28;20064;-77
2022/09/21 08:03:52;;;;;;;3.85;1.52;;;;;;;20.24;46.84;102619.59;5011294;28;20045;-80
2022/09/21 08:06:18;;;;;;;5.88;1.70;;;;;;;20.23;46.66;102617.88;5011688;28;20129;-78
2022/09/21 08:08:44;;;;;;;5.25;1.50;;;;;;;20.24;46.54;102614.31;5012797;28;20060;-74
2022/09/21 08:11:10;;;;;;;3.30;1.35;;;;;;;20.28;46.85;102622.91;5012454;28;20025;-77
2022/09/21 08:13:36;;;;;;;7.30;1.65;;;;;;;20.28;46.78;102610.53;5013492;28;20378;-69
2022/09/21 08:16:02;;;;;;;4.78;1.52;;;;;;;20.29;46.74;102622.81;5012608;28;20030;-76
2022/09/21 08:18:28;;;;;;;3.50;1.30;;;;;;;20.22;46.89;102607.41;5012409;28;20188;-78
2022/09/21 08:20:58;;;;;;;7.18;1.50;;;;;;;20.26;46.89;102617.69;5012603;28;20529;-76
2022/09/21 08:23:25;;;;;;;5.85;1.67;;;;;;;20.28;46.64;102628.19;5011931;28;20646;-76
2022/09/21 08:25:51;;;;;;;5.22;1.50;;;;;;;20.17;46.82;102610.34;5018442;28;20529;-76
2022/09/21 08:28:17;;;;;;;5.82;1.70;;;;;;;20.21;46.81;102619.78;5012128;28;20042;-78
2022/09/21 08:30:42;;;;;;;6.30;1.48;;;;;;;20.15;46.82;102609.59;5010857;28;20045;-79
2022/09/21 08:33:08;;;;;;;5.53;1.60;;;;;;;20.23;46.90;102625.00;5012292;28;20030;-78
2022/09/21 08:35:34;;;;;;;4.07;1.30;;;;;;;20.15;46.65;102614.88;5011439;28;20091;-77
2022/09/21 08:37:59;;;;;;;3.05;1.35;;;;;;;20.16;46.56;102619.22;5012416;28;20133;-76
2022/09/21 08:40:25;;;;;;;3.72;1.25;;;;;;;20.25;46.58;102631.91;5011869;28;20129;-76
2022/09/21 08:43:12;;;;;;;5.03;1.20;;;;;;;20.21;46.68;102629.53;5012150;28;20057;-75
2022/09/21 08:45:44;;;;;;;3.78;1.20;;;;;;;20.15;46.77;102622.81;5011376;28;20036;-76
2022/09/21 08:48:19;;;;;;;3.40;1.20;;;;;;;20.17;46.55;102622.72;5011612;28;20537;-76
2022/09/21 08:50:52;;;;;;;5.00;1.25;;;;;;;20.15;46.51;102619.31;5011408;28;20092;-79
2022/09/21 08:53:20;;;;;;;4.65;1.23;;;;;;;20.22;46.88;102633.88;5012384;28;20029;-76
2022/09/21 08:55:45;;;;;;;3.15;1.10;;;;;;;20.19;46.45;102632.28;5012188;28;20030;-75
2022/09/21 08:58:23;;;;;;;3.17;1.10;;;;;;;20.22;46.42;102633.88;5011383;28;20084;-75
2022/09/21 09:01:11;;;;;;;3.28;1.27;;;;;;;20.21;46.52;102634.84;5010746;28;20981;-78
2022/09/21 09:03:58;;;;;;;3.00;1.10;;;;;;;20.22;46.42;102639.16;5011830;28;20034;-77
2022/09/21 09:06:36;;;;;;;3.63;1.30;;;;;;;20.18;46.50;102630.56;5012198;28;20412;-76
2022/09/21 09:09:43;;;;;;;2.92;1.15;;;;;;;20.15;46.21;102624.63;5013001;28;20036;-77
2022/09/21 09:12:34;;;;;;;3.53;1.00;;;;;;;20.16;46.20;102629.81;5011862;28;20060;-77
2022/09/21 09:15:16;;;;;;;4.38;1.20;;;;;;;20.16;46.21;102632.47;5015322;28;20064;-76
2022/09/21 09:17:50;;;;;;;3.15;1.10;;;;;;;20.24;45.93;102637.28;5017184;28;20034;-76
2022/09/21 09:20:21;;;;;;;;;;;;;;;20.23;46.14;102644.38;5016435;28;20128;-77
2022/09/21 09:23:03;;;;;;;3.92;1.08;;;;;;;20.24;46.11;102642.59;5017442;28;20360;-77
2022/09/21 09:25:35;;;;;;;3.83;1.10;;;;;;;20.22;46.31;102644.47;5010818;28;20145;-73
2022/09/21 09:28:12;;;;;;;2.85;1.10;;;;;;;20.21;45.84;102643.63;5010319;28;20049;-72
2022/09/21 09:30:37;;;;;;;2.72;1.00;;;;;;;20.11;44.75;102629.25;5010971;28;20038;-73
2022/09/21 09:33:21;;;;;;;6.75;1.55;;;;;;;20.04;44.15;102634.06;5010286;28;20041;-72
2022/09/21 09:35:52;;;;;;;3.40;1.23;;;;;;;20.08;45.43;102638.22;5013457;28;20052;-72
2022/09/21 09:38:41;;;;;;;2.53;0.98;;;;;;;20.13;45.20;102640.59;5016351;28;20850;-69
2022/09/21 09:41:38;;;;;;;3.92;1.05;;;;;;;20.15;45.74;102644.00;5013278;28;20038;-72
2022/09/21 09:44:22;;;;;;;2.97;0.98;;;;;;;20.18;45.54;102641.16;5009685;28;20057;-74
2022/09/21 09:47:25;;;;;;;1.60;0.80;;;;;;;20.21;45.63;102645.44;5013652;28;20087;-72
2022/09/21 09:50:11;;;;;;;2.75;0.93;;;;;;;20.18;45.66;102630.56;5014603;28;20049;-71
2022/09/21 09:52:38;;;;;;;2.72;1.00;;;;;;;20.23;45.42;102641.72;5014709;28;20488;-73
2022/09/21 09:55:19;;;;;;;3.22;1.10;;;;;;;20.16;45.56;102628.97;5014343;28;20029;-71
2022/09/21 09:57:46;;;;;;;3.13;0.90;;;;;;;20.19;45.58;102640.22;5013799;28;20033;-74
2022/09/21 10:00:13;;;;;;;4.10;1.13;;;;;;;20.18;45.14;102635.88;5012937;28;20032;-73
2022/09/21 10:02:50;;;;;;;2.40;1.00;;;;;;;20.19;45.53;102639.38;5013788;28;20040;-73
2022/09/21 10:05:24;;;;;;;2.90;1.00;;;;;;;20.20;45.58;102635.78;5015247;28;20034;-73
2022/09/21 10:07:50;;;;;;;2.67;0.98;;;;;;;20.24;45.48;102645.25;5014448;28;20397;-72
2022/09/21 10:10:32;;;;;;;3.50;1.00;;;;;;;20.23;45.37;102641.72;5014582;28;20022;-73
2022/09/21 10:13:15;;;;;;;3.05;0.90;;;;;;;20.18;45.59;102635.88;5021639;28;20044;-72
2022/09/21 10:15:48;;;;;;;1.70;0.88;;;;;;;20.21;45.42;102638.31;5013993;28;20036;-72
2022/09/21 10:18:25;;;;;;;3.35;1.00;;;;;;;20.20;45.57;102639.28;5014421;28;20076;-72
2022/09/21 10:20:59;;;;;;;3.63;0.80;;;;;;;20.21;45.50;102638.31;5015002;28;20034;-72
2022/09/21 10:23:25;;;;;;;3.03;0.90;;;;;;;20.15;45.61;102627.28;5014681;28;20107;-75
2022/09/21 10:26:01;;;;;;;3.22;0.95;;;;;;;20.16;45.71;102637.75;5014307;28;20045;-72
2022/09/21 10:28:27;;;;;;;3.30;0.93;;;;;;;20.13;45.46;102631.81;5013250;28;20084;-71
2022/09/21 10:31:17;;;;;;;2.88;0.93;;;;;;;20.15;45.41;102629.91;5013168;28;20113;-73
2022/09/21 10:33:49;;;;;;;2.63;0.93;;;;;;;20.17;45.32;102625.38;5013515;28;20128;-73
2022/09/21 10:36:50;;;;;;;3.35;0.93;;;;;;;20.20;45.29;102627.84;5013160;28;20037;-72
2022/09/21 10:39:23;;;;;;;1.90;0.80;;;;;;;20.20;45.47;102626.06;5016076;28;20052;-72
2022/09/21 10:41:55;;;;;;;2.88;0.80;;;;;;;20.21;45.19;102632.19;5012671;28;20034;-72
2022/09/21 10:44:25;;;;;;;2.05;0.80;;;;;;;20.15;45.16;102620.16;5012310;28;20126;-73
2022/09/21 10:46:51;;;;;;;2.60;0.80;;;;;;;20.20;45.25;102622.53;5012605;28;20061;-74
2022/09/21 10:49:27;;;;;;;1.67;0.60;;;;;;;20.15;45.41;102612.22;5011855;28;20029;-69
2022/09/21 10:51:57;;;;;;;1.83;0.70;;;;;;;20.15;45.27;102604.28;5012381;28;20026;-69
2022/09/21 10:54:26;;;;;;;3.00;0.60;;;;;;;20.17;45.24;102613.00;5012432;28;20030;-73
2022/09/21 10:57:02;;;;;;;1.58;0.80;;;;;;;20.00;45.29;102582.28;5012314;28;20489;-72
2022/09/21 10:59:31;;;;;;;1.90;0.70;;;;;;;20.21;45.03;102618.94;5012891;28;20038;-71
2022/09/21 11:01:58;;;;;;;1.75;0.60;;;;;;;20.20;45.07;102615.47;5012528;28;20030;-72
2022/09/21 11:04:47;;;;;;;2.55;0.80;;;;;;;20.22;45.02;102620.63;5012359;28;20374;-72
2022/09/21 11:07:23;;;;;;;4.18;1.02;;;;;;;20.22;45.12;102621.50;5012433;28;20955;-75
2022/09/21 11:10:10;;;;;;;2.38;0.80;;;;;;;20.23;45.16;102611.75;5012810;28;20103;-74
2022/09/21 11:12:52;;;;;;;2.90;0.90;;;;;;;20.24;45.21;102616.97;5011718;28;20421;-75
2022/09/21 11:15:27;;;;;;;2.75;1.00;;;;;;;20.25;45.46;102616.03;5012646;28;20049;-74
2022/09/21 11:18:05;;;;;;;3.65;0.80;;;;;;;20.10;45.34;102590.50;5012366;28;20052;-74
2022/09/21 11:20:42;;;;;;;5.03;0.90;;;;;;;20.23;45.51;102609.09;5011902;28;20029;-72
2022/09/21 11:23:13;;;;;;;2.50;0.70;;;;;;;20.25;45.47;102617.78;5012370;28;20031;-76
2022/09/21 11:25:48;;;;;;;2.28;0.80;;;;;;;20.26;45.51;102611.56;5012076;28;20481;-72
2022/09/21 11:28:23;;;;;;;2.75;0.80;;;;;;;20.27;45.61;102613.28;4976228;28;1047577;-73
2022/09/21 11:31:30;;;;;;;5.07;0.73;;;;;;;20.28;45.54;102618.47;5013430;28;20519;-74
2022/09/21 11:34:31;;;;;;;2.33;0.70;;;;;;;20.30;45.65;102613.09;4947051;28;20388;-74
2022/09/21 11:37:14;;;;;;;3.10;1.00;;;;;;;20.29;45.49;102606.91;4943534;28;20483;-73
2022/09/21 11:39:56;;;;;;;2.88;1.00;;;;;;;20.33;45.85;102601.44;5003662;28;20107;-75
2022/09/21 11:42:30;;;;;;;2.50;0.68;;;;;;;20.26;45.67;102596.53;5012979;28;20135;-75
2022/09/21 11:45:00;;;;;;;2.88;0.90;;;;;;;20.24;45.77;102592.28;5019566;28;20140;-73
2022/09/21 11:47:48;;;;;;;3.53;0.90;;;;;;;20.25;45.75;102593.97;5012310;28;20044;-73
2022/09/21 11:50:39;;;;;;;3.63;0.88;;;;;;;20.11;45.73;102563.94;5012924;28;20056;-73
2022/09/21 11:53:15;;;;;;;3.50;0.75;;;;;;;20.30;45.46;102597.19;5013025;28;20030;-72